< Cyclone 197601 1976 Season Cyclone 197603 >
Cyclone 197602 (JOAN)
General InformationTrack Information on Google MapsDetailed Wind Information || ResourceGoogle EarthGE AnimationAtom FeedGeoJSON
Detalied Best Track (Time Zone = UTC)
Year Month Day Hour Lat. Long. Pressure (hPa) Wind (kt) Class Image Chart
1975 11 30 01 -11.0 128.4 1005 25 2 -- --
1975 11 30 04 -11.0 128.4 1002 25 2 -- --
1975 11 30 07 -11.1 128.4 998 25 2 -- --
1975 11 30 10 -11.1 128.3 997 30 2 -- --
1975 11 30 13 -11.1 128.2 997 30 2 -- --
1975 11 30 16 -11.2 128.2 996 30 2 -- --
1975 11 30 19 -11.3 128.2 994 40 3 -- --
1975 11 30 22 -11.4 128.2 994 40 3 -- --
1975 12 1 01 -11.5 128.2 994 40 3 -- --
1975 12 1 04 -11.6 128.1 992 40 3 -- --
1975 12 1 07 -11.7 128.1 990 40 3 -- --
1975 12 1 10 -11.8 128.0 989 45 3 -- --
1975 12 1 13 -12.0 128.0 989 45 3 -- --
1975 12 1 16 -12.1 127.9 989 45 3 -- --
1975 12 1 19 -12.2 127.9 988 50 4 -- --
1975 12 1 22 -12.3 127.8 988 50 4 -- --
1975 12 2 01 -12.4 127.8 988 50 4 -- --
1975 12 2 04 -12.5 127.7 986 50 4 -- --
1975 12 2 07 -12.6 127.6 984 55 4 -- --
1975 12 2 10 -12.7 127.5 982 55 4 -- --
1975 12 2 13 -12.9 127.4 980 60 4 -- --
1975 12 2 16 -13.0 127.2 978 60 4 -- --
1975 12 2 19 -13.2 127.0 976 65 5 -- --
1975 12 2 22 -13.3 126.8 974 70 5 -- --
1975 12 3 01 -13.4 126.6 973 70 5 -- --
1975 12 3 04 -13.4 126.4 972 75 5 -- --
1975 12 3 07 -13.5 126.2 970 75 5 -- --
1975 12 3 10 -13.5 126.0 968 75 5 -- --
1975 12 3 13 -13.6 125.8 966 80 5 -- --
1975 12 3 16 -13.7 125.4 963 80 5 -- --
1975 12 3 19 -13.9 124.9 960 85 5 -- --
1975 12 3 22 -14.0 124.4 957 90 5 -- --
1975 12 4 01 -14.2 123.8 954 90 5 -- --
1975 12 4 04 -14.3 123.4 952 90 5 -- --
1975 12 4 07 -14.4 123.1 951 90 5 -- --
1975 12 4 10 -14.5 122.8 949 90 5 -- --
1975 12 4 13 -14.7 122.6 948 90 5 -- --
1975 12 4 16 -15.0 122.3 946 95 5 -- --
1975 12 4 19 -15.3 121.9 945 95 5 -- --
1975 12 4 22 -15.6 121.5 943 100 5 -- --
1975 12 5 01 -15.9 121.1 942 100 5 -- --
1975 12 5 04 -15.9 120.8 940 100 5 -- --
1975 12 5 07 -16.0 120.5 939 100 5 -- --
1975 12 5 10 -16.0 120.2 938 105 5 -- --
1975 12 5 13 -16.1 120.0 936 105 5 -- --
1975 12 5 16 -16.1 119.7 935 105 5 -- --
1975 12 5 19 -16.2 119.4 933 105 5 -- --
1975 12 5 22 -16.2 119.1 931 110 5 -- --
1975 12 6 01 -16.3 118.8 929 110 5 -- --
1975 12 6 04 -16.3 118.6 928 110 5 -- --
1975 12 6 07 -16.4 118.4 926 110 5 -- --
1975 12 6 10 -16.4 118.2 925 110 5 -- --
1975 12 6 13 -16.5 118.0 923 110 5 -- --
1975 12 6 16 -16.7 118.0 921 110 5 -- --
1975 12 6 19 -16.9 117.9 919 110 5 -- --
1975 12 6 22 -17.2 117.9 917 110 5 -- --
1975 12 7 01 -17.5 117.9 915 115 5 -- --
1975 12 7 04 -17.8 117.9 915 115 5 -- --
1975 12 7 07 -18.2 118.0 915 115 5 -- --
1975 12 7 10 -18.6 118.0 915 115 5 -- --
1975 12 7 13 -19.0 118.0 915 115 5 -- --
1975 12 7 16 -19.4 118.0 915 115 5 -- --
1975 12 7 19 -19.8 118.1 915 115 5 -- --
1975 12 7 22 -20.3 118.1 915 115 5 -- --
1975 12 7 23 -20.4 118.1 917 115 5 -- --
1975 12 8 01 -20.7 118.1 935 105 5 -- --
1975 12 8 04 -21.0 118.0 947 90 5 -- --
1975 12 8 07 -21.3 117.9 957 80 5 -- --
1975 12 8 10 -21.6 117.8 965 70 5 -- --
1975 12 8 13 -21.9 117.7 971 60 4 -- --
1975 12 8 16 -22.2 117.6 976 50 4 -- --
1975 12 8 19 -22.6 117.4 981 45 3 -- --
1975 12 8 22 -23.0 117.2 983 40 3 -- --
1975 12 9 01 -23.3 117.2 985 40 3 -- --
1975 12 9 04 -23.8 117.0 987 35 3 -- --
1975 12 9 07 -24.2 116.9 990 35 3 -- --
1975 12 9 10 -24.5 116.9 991 30 2 -- --
1975 12 9 13 -24.8 116.9 992 30 2 -- --
1975 12 9 16 -25.3 117.0 993 30 2 -- --
1975 12 9 19 -25.8 117.1 994 25 2 -- --
1975 12 9 22 -26.3 117.3 995 25 2 -- --
1975 12 10 01 -26.8 117.5 996 25 2 -- --
< Cyclone 197601 1976 Season Cyclone 197603 >

Help